Time;durP1;ratioP1;P1;durP2;ratioP2;P2;SDS_P1;SDS_P2;PMS_P1;PMS_P2;Temp;Humidity;BMP_temperature;BMP_pressure;BME280_temperature;BME280_humidity;BME280_pressure;Samples;Min_cycle;Max_cycle;Signal;HPM_P1;HPM_P2
2022/10/08 00:02:20;;;;;;;3.00;1.35;;;;;;;12.29;100.00;98470.84;15272412;19;20011;-54
2022/10/08 00:07:47;;;;;;;3.13;1.50;;;;;;;12.23;100.00;98467.00;15265287;19;20019;-51
2022/10/08 00:13:12;;;;;;;4.10;1.75;;;;;;;12.21;100.00;98469.00;15265852;19;20020;-54
2022/10/08 00:18:36;;;;;;;3.72;1.40;;;;;;;12.13;100.00;98466.31;15270956;19;20033;-50
2022/10/08 00:24:05;;;;;;;2.78;1.58;;;;;;;12.05;100.00;98459.06;15264956;19;20015;-52
2022/10/08 00:29:31;;;;;;;5.15;1.48;;;;;;;11.96;100.00;98450.09;15267189;19;20473;-56
2022/10/08 00:34:56;;;;;;;3.28;1.50;;;;;;;11.85;100.00;98463.94;15269116;19;20018;-57
2022/10/08 00:40:30;;;;;;;5.90;1.70;;;;;;;11.78;100.00;98463.75;15265534;19;20054;-57
2022/10/08 00:45:55;;;;;;;4.43;1.67;;;;;;;11.63;100.00;98458.19;15256908;19;20797;-58
2022/10/08 00:51:20;;;;;;;2.92;1.60;;;;;;;11.52;100.00;98461.22;15270148;19;20022;-56
2022/10/08 00:56:50;;;;;;;7.13;2.20;;;;;;;11.44;100.00;98461.22;15263275;19;20016;-57
2022/10/08 01:02:15;;;;;;;6.35;1.90;;;;;;;11.40;100.00;98449.91;15269180;19;20012;-54
2022/10/08 01:07:50;;;;;;;2.50;1.90;;;;;;;11.43;100.00;98454.13;15262741;19;20023;-55
2022/10/08 01:13:29;;;;;;;3.40;1.75;;;;;;;11.40;100.00;98445.34;15271123;19;20030;-56
2022/10/08 01:18:59;;;;;;;4.15;1.80;;;;;;;11.40;100.00;98437.25;15260740;19;20027;-58
2022/10/08 01:30:23;;;;;;;5.22;1.73;;;;;;;11.46;100.00;98434.91;15267329;19;20031;-53
2022/10/08 01:35:55;;;;;;;3.53;1.85;;;;;;;11.55;100.00;98442.00;15268344;19;20018;-55
2022/10/08 01:41:28;;;;;;;5.70;2.28;;;;;;;11.65;100.00;98448.06;15278899;19;20063;-53
2022/10/08 01:46:59;;;;;;;4.47;2.20;;;;;;;11.70;100.00;98434.91;15274771;19;20022;-53
2022/10/08 01:52:29;;;;;;;3.23;2.10;;;;;;;11.76;100.00;98443.34;15286794;19;20014;-57
2022/10/08 01:57:57;;;;;;;4.65;2.08;;;;;;;11.76;100.00;98433.38;15276948;19;20479;-56
2022/10/08 02:03:24;;;;;;;3.58;2.00;;;;;;;11.75;100.00;98436.25;15282307;19;20078;-55
2022/10/08 02:08:49;;;;;;;4.13;2.40;;;;;;;11.75;100.00;98423.63;15278105;19;20014;-58
2022/10/08 02:14:14;;;;;;;3.78;2.10;;;;;;;11.71;100.00;98428.50;15275043;19;20017;-57
2022/10/08 02:19:56;;;;;;;4.90;2.47;;;;;;;11.74;100.00;98424.66;15270223;19;20018;-58
2022/10/08 02:25:26;;;;;;;5.93;2.30;;;;;;;11.78;100.00;98425.16;15277306;19;20014;-57
2022/10/08 02:30:56;;;;;;;5.07;2.60;;;;;;;11.85;100.00;98431.53;15273979;19;20015;-55
2022/10/08 02:36:30;;;;;;;4.15;2.50;;;;;;;11.88;100.00;98442.84;15275289;19;20022;-55
2022/10/08 02:42:05;;;;;;;4.55;2.58;;;;;;;11.90;100.00;98434.59;15275530;19;20010;-57
2022/10/08 02:47:34;;;;;;;5.10;2.30;;;;;;;11.92;100.00;98432.56;15272616;19;20014;-54
2022/10/08 02:53:01;;;;;;;5.53;2.70;;;;;;;11.93;100.00;98441.50;15271339;19;20014;-55
2022/10/08 02:58:26;;;;;;;5.32;2.60;;;;;;;11.92;100.00;98453.31;15276091;19;20472;-57
2022/10/08 03:03:57;;;;;;;5.00;2.78;;;;;;;11.85;100.00;98464.78;15269670;19;20040;-58
2022/10/08 03:09:30;;;;;;;5.53;2.55;;;;;;;11.86;100.00;98460.22;15275386;19;20021;-57
2022/10/08 03:14:57;;;;;;;3.63;2.80;;;;;;;11.84;100.00;98456.84;15273167;19;20481;-58
2022/10/08 03:20:22;;;;;;;6.00;2.53;;;;;;;11.81;100.00;98468.00;15275419;19;20011;-56
2022/10/08 03:25:49;;;;;;;3.28;2.30;;;;;;;11.82;100.00;98473.22;15266021;19;20018;-57
2022/10/08 03:31:14;;;;;;;3.08;2.47;;;;;;;11.82;100.00;98475.06;15276907;19;20599;-56
2022/10/08 03:36:39;;;;;;;5.50;2.40;;;;;;;11.79;100.00;98472.72;15267724;19;20114;-55
2022/10/08 03:42:06;;;;;;;6.18;2.60;;;;;;;11.83;100.00;98476.75;15270108;19;20010;-53
2022/10/08 03:47:32;;;;;;;5.13;2.50;;;;;;;11.84;100.00;98478.44;15267197;19;20077;-58
2022/10/08 03:52:57;;;;;;;4.80;2.33;;;;;;;11.82;100.00;98481.31;15272765;19;20014;-56
2022/10/08 03:58:27;;;;;;;6.20;2.50;;;;;;;11.82;100.00;98481.31;15266850;19;20038;-59
2022/10/08 04:03:52;;;;;;;4.60;2.30;;;;;;;11.79;100.00;98480.81;15269949;19;20516;-54
2022/10/08 04:09:18;;;;;;;6.80;2.70;;;;;;;11.70;100.00;98478.09;15267004;19;20015;-57
2022/10/08 04:14:46;;;;;;;4.72;2.50;;;;;;;11.61;100.00;98487.19;15272588;19;20375;-58
2022/10/08 04:20:10;;;;;;;4.50;2.70;;;;;;;11.53;100.00;98489.88;15269278;19;20564;-55
2022/10/08 04:25:36;;;;;;;7.47;3.10;;;;;;;11.49;100.00;98485.81;15268525;19;20015;-56
2022/10/08 04:31:08;;;;;;;5.88;3.05;;;;;;;11.44;100.00;98477.41;15264334;19;20022;-55
2022/10/08 04:36:33;;;;;;;6.20;3.00;;;;;;;11.43;100.00;98479.22;15268713;19;20018;-54
2022/10/08 04:41:58;;;;;;;4.45;2.85;;;;;;;11.34;100.00;98475.69;15261637;19;20022;-59
2022/10/08 04:47:25;;;;;;;6.07;3.10;;;;;;;11.21;100.00;98478.84;15267066;19;20122;-55
2022/10/08 04:52:50;;;;;;;7.82;3.30;;;;;;;11.10;100.00;98485.41;15270441;19;20022;-57
2022/10/08 04:58:15;;;;;;;4.55;2.63;;;;;;;11.10;100.00;98488.09;15268098;19;20018;-55
2022/10/08 05:03:44;;;;;;;5.00;2.80;;;;;;;11.14;100.00;98491.31;15261588;19;20031;-55
2022/10/08 05:09:09;;;;;;;6.05;3.10;;;;;;;11.12;100.00;98487.06;15267865;19;20433;-58
2022/10/08 05:14:34;;;;;;;5.63;3.20;;;;;;;11.09;100.00;98497.19;15261653;19;20469;-57
2022/10/08 05:20:03;;;;;;;6.30;3.13;;;;;;;11.03;100.00;98494.28;15267314;19;20485;-59
2022/10/08 05:25:27;;;;;;;6.25;3.08;;;;;;;10.98;100.00;98496.63;15266390;19;20374;-53
2022/10/08 05:30:53;;;;;;;5.22;2.90;;;;;;;10.92;100.00;98512.44;15081287;19;20018;-53
2022/10/08 05:36:24;;;;;;;6.72;2.60;;;;;;;10.88;100.00;98504.81;15252822;19;20014;-56
2022/10/08 05:41:49;;;;;;;4.77;2.23;;;;;;;10.89;100.00;98501.13;15259576;19;20007;-54
2022/10/08 05:47:13;;;;;;;6.35;2.10;;;;;;;10.86;100.00;98510.38;15256361;19;20378;-57
2022/10/08 05:52:40;;;;;;;7.45;1.65;;;;;;;11.00;100.00;98497.31;15266234;19;20102;-57
2022/10/08 05:58:05;;;;;;;6.25;2.17;;;;;;;11.05;100.00;98505.78;15261302;19;20022;-60
2022/10/08 06:03:31;;;;;;;5.18;2.10;;;;;;;11.05;100.00;98517.38;15261075;19;20098;-55
2022/10/08 06:09:01;;;;;;;5.80;1.75;;;;;;;11.21;100.00;98511.19;15254958;19;20033;-59
2022/10/08 06:14:26;;;;;;;5.78;1.60;;;;;;;11.36;100.00;98530.28;15264008;19;20015;-60
2022/10/08 06:19:53;;;;;;;5.05;1.48;;;;;;;11.52;100.00;98512.47;15260916;19;20045;-52
2022/10/08 06:25:21;;;;;;;6.82;1.70;;;;;;;11.53;100.00;98528.50;15268756;19;20442;-56
2022/10/08 06:30:47;;;;;;;4.78;1.55;;;;;;;11.64;100.00;98526.50;15277193;19;20573;-57
2022/10/08 06:36:17;;;;;;;5.10;1.50;;;;;;;11.60;100.00;98519.75;15273675;19;20023;-59
2022/10/08 06:41:51;;;;;;;6.55;2.00;;;;;;;11.41;100.00;98527.09;15268683;19;20002;-57
2022/10/08 06:47:20;;;;;;;7.82;1.90;;;;;;;11.55;100.00;98539.13;15269000;19;20018;-54
2022/10/08 06:52:44;;;;;;;5.50;1.30;;;;;;;11.79;100.00;98540.19;15273476;19;20363;-54
2022/10/08 06:58:12;;;;;;;7.13;1.60;;;;;;;11.86;100.00;98535.81;15276731;19;20413;-53
2022/10/08 07:03:37;;;;;;;4.65;1.58;;;;;;;11.93;100.00;98549.50;15276980;19;20796;-57
2022/10/08 07:09:03;;;;;;;5.07;1.40;;;;;;;11.94;100.00;98549.31;15271532;19;20216;-57
2022/10/08 07:14:30;;;;;;;5.35;1.40;;;;;;;11.99;100.00;98556.97;15274903;19;20784;-59
2022/10/08 07:19:55;;;;;;;5.50;1.67;;;;;;;12.04;100.00;98557.28;15277559;19;20491;-58
2022/10/08 07:25:19;;;;;;;9.52;1.45;;;;;;;12.15;100.00;98558.84;15271779;19;20335;-58
2022/10/08 07:30:47;;;;;;;7.43;1.60;;;;;;;12.31;100.00;98556.13;15274244;19;20366;-57
2022/10/08 07:36:16;;;;;;;5.20;1.40;;;;;;;12.42;100.00;98557.66;15270587;19;20030;-59
2022/10/08 07:41:48;;;;;;;4.95;1.33;;;;;;;12.37;100.00;98569.97;15262510;19;20026;-56
2022/10/08 07:47:15;;;;;;;6.82;1.45;;;;;;;12.39;100.00;98581.47;15270987;19;20022;-57
2022/10/08 07:52:39;;;;;;;6.32;1.40;;;;;;;12.57;100.00;98570.47;15270236;19;20014;-56
2022/10/08 07:58:05;;;;;;;5.47;1.40;;;;;;;12.73;100.00;98570.44;15275189;19;20596;-58
2022/10/08 08:03:32;;;;;;;6.20;1.63;;;;;;;12.92;100.00;98561.09;15272977;19;20046;-58
2022/10/08 08:08:57;;;;;;;4.45;1.27;;;;;;;13.08;100.00;98578.31;15270450;19;20021;-58
2022/10/08 08:14:21;;;;;;;4.78;1.38;;;;;;;13.10;100.00;98576.28;15267556;19;20480;-55
2022/10/08 08:19:49;;;;;;;8.25;1.70;;;;;;;13.05;100.00;98574.06;15269615;19;20473;-57
2022/10/08 08:25:14;;;;;;;4.35;1.30;;;;;;;13.12;100.00;98567.97;15262524;19;20014;-57
2022/10/08 08:30:39;;;;;;;5.30;1.45;;;;;;;13.28;100.00;98577.91;15269672;19;20034;-54
2022/10/08 08:36:06;;;;;;;6.43;1.35;;;;;;;13.42;100.00;98579.91;15270133;19;20018;-55
2022/10/08 08:41:54;;;;;;;4.82;1.35;;;;;;;13.54;100.00;98583.06;15268397;19;20445;-57
2022/10/08 08:47:23;;;;;;;5.30;1.30;;;;;;;13.66;100.00;98583.50;15261507;19;20029;-55
2022/10/08 08:52:54;;;;;;;4.00;1.20;;;;;;;13.86;100.00;98590.16;15270693;19;20010;-58
2022/10/08 08:58:32;;;;;;;3.90;1.38;;;;;;;14.12;100.00;98590.84;15266061;19;20022;-57
2022/10/08 09:03:59;;;;;;;6.05;1.30;;;;;;;14.23;100.00;98593.13;15268944;19;20015;-54
2022/10/08 09:09:35;;;;;;;2.85;1.13;;;;;;;14.42;100.00;98605.34;15269252;19;20386;-56
2022/10/08 09:15:02;;;;;;;3.65;1.20;;;;;;;14.43;100.00;98609.75;15268665;19;20023;-55
2022/10/08 09:20:27;;;;;;;4.78;1.02;;;;;;;14.28;100.00;98608.88;15262737;19;20026;-58
2022/10/08 09:26:04;;;;;;;3.78;0.93;;;;;;;14.19;100.00;98602.66;15265512;19;20026;-58
2022/10/08 09:31:34;;;;;;;4.65;1.02;;;;;;;14.32;100.00;98615.59;15264182;19;20014;-57
2022/10/08 09:37:00;;;;;;;2.70;0.93;;;;;;;14.14;100.00;98621.31;15265770;19;20038;-58
2022/10/08 09:42:34;;;;;;;3.78;0.88;;;;;;;14.00;100.00;98620.22;15263610;19;20010;-57
2022/10/08 09:48:18;;;;;;;2.65;0.88;;;;;;;14.13;100.00;98634.03;15262976;19;20014;-58
2022/10/08 09:53:48;;;;;;;2.63;1.08;;;;;;;14.41;100.00;98622.63;15260667;19;20018;-57
2022/10/08 09:59:22;;;;;;;3.35;1.02;;;;;;;14.63;100.00;98625.53;15267752;19;20023;-58
2022/10/08 10:04:47;;;;;;;2.50;0.90;;;;;;;14.90;100.00;98621.44;15276426;19;20015;-57
2022/10/08 10:10:19;;;;;;;1.88;0.70;;;;;;;15.02;100.00;98619.09;15280528;19;20015;-57
2022/10/08 10:15:52;;;;;;;3.17;0.70;;;;;;;15.33;100.00;98620.81;15278393;19;20026;-58
2022/10/08 10:21:24;;;;;;;1.80;0.68;;;;;;;15.61;100.00;98614.69;15282170;19;20010;-57
2022/10/08 10:26:50;;;;;;;1.92;0.80;;;;;;;15.61;100.00;98611.97;15269131;19;20389;-55
2022/10/08 10:32:22;;;;;;;2.15;0.82;;;;;;;15.62;100.00;98619.09;15278437;19;20046;-58
2022/10/08 10:37:56;;;;;;;3.17;0.70;;;;;;;15.53;100.00;98615.63;15273076;19;20025;-58
2022/10/08 10:43:48;;;;;;;3.17;0.75;;;;;;;15.51;100.00;98614.13;15272517;19;20007;-58
2022/10/08 10:49:18;;;;;;;1.88;0.73;;;;;;;15.36;100.00;98620.41;15266558;19;20830;-56
2022/10/08 10:54:59;;;;;;;1.77;0.60;;;;;;;15.13;100.00;98620.50;15271772;19;20074;-55
2022/10/08 11:00:28;;;;;;;2.83;0.80;;;;;;;15.03;100.00;98625.38;15272219;19;20018;-59
2022/10/08 11:06:01;;;;;;;3.63;1.00;;;;;;;14.90;100.00;98620.56;15270534;19;20015;-57
2022/10/08 11:11:35;;;;;;;3.25;1.08;;;;;;;14.76;100.00;98647.47;15272119;19;20015;-54
2022/10/08 11:17:12;;;;;;;3.25;1.00;;;;;;;14.69;100.00;98643.81;15269652;19;20007;-58
2022/10/08 11:22:47;;;;;;;2.83;1.00;;;;;;;14.49;100.00;98656.97;15272407;19;20085;-57
2022/10/08 11:28:35;;;;;;;3.88;1.00;;;;;;;14.04;100.00;98675.75;15265881;19;20418;-58
2022/10/08 11:34:02;;;;;;;4.63;1.25;;;;;;;13.60;100.00;98674.41;15274611;19;20046;-57
2022/10/08 11:39:35;;;;;;;6.10;1.20;;;;;;;13.31;100.00;98688.50;15270097;19;20021;-59
2022/10/08 11:45:15;;;;;;;3.22;1.10;;;;;;;12.99;100.00;98698.34;15274485;19;20627;-55
2022/10/08 11:50:43;;;;;;;2.55;1.10;;;;;;;12.83;100.00;98704.59;15273496;19;20529;-58
2022/10/08 11:56:11;;;;;;;3.90;1.05;;;;;;;12.61;100.00;98707.81;15276358;19;20018;-56
2022/10/08 12:01:35;;;;;;;3.55;0.70;;;;;;;12.56;100.00;98723.66;15271883;19;20089;-57
2022/10/08 12:07:08;;;;;;;5.20;1.00;;;;;;;12.48;100.00;98719.09;15271722;19;20014;-59
2022/10/08 12:13:06;;;;;;;3.35;0.82;;;;;;;12.36;100.00;98722.28;15270385;19;20027;-59
2022/10/08 12:18:45;;;;;;;3.25;1.10;;;;;;;12.22;100.00;98724.59;15273986;19;20021;-53
2022/10/08 12:24:09;;;;;;;2.47;1.00;;;;;;;12.22;100.00;98730.00;15275892;19;20014;-57
2022/10/08 12:29:55;;;;;;;2.35;0.90;;;;;;;12.31;100.00;98726.31;15275173;19;20015;-59
2022/10/08 12:35:29;;;;;;;3.97;1.20;;;;;;;12.41;100.00;98725.31;15270315;19;20011;-54
2022/10/08 12:41:02;;;;;;;2.83;0.90;;;;;;;12.56;100.00;98718.25;15274173;19;20014;-58
2022/10/08 12:46:41;;;;;;;3.17;0.90;;;;;;;12.55;100.00;98711.16;15271082;19;20500;-55
2022/10/08 12:52:10;;;;;;;4.45;1.00;;;;;;;12.55;100.00;98721.97;15274416;19;20024;-57
2022/10/08 12:57:37;;;;;;;2.85;0.63;;;;;;;12.59;100.00;98731.44;15275664;19;20031;-60
2022/10/08 13:03:20;;;;;;;1.70;0.70;;;;;;;12.60;100.00;98716.06;15269119;19;20026;-57
2022/10/08 13:08:45;;;;;;;2.63;0.93;;;;;;;12.60;100.00;98714.22;15265856;19;20403;-58
2022/10/08 13:14:10;;;;;;;1.60;0.80;;;;;;;12.65;100.00;98716.41;15268685;19;20035;-56
2022/10/08 13:19:39;;;;;;;2.75;0.80;;;;;;;12.69;100.00;98723.19;15264771;19;20014;-57
2022/10/08 13:25:04;;;;;;;1.92;0.80;;;;;;;12.77;100.00;98735.84;15268173;19;20017;-58
2022/10/08 13:30:30;;;;;;;2.03;1.02;;;;;;;12.81;100.00;98734.50;15268434;19;20017;-58
2022/10/08 13:36:05;;;;;;;2.28;0.80;;;;;;;12.95;100.00;98731.13;15269385;19;20026;-57
2022/10/08 13:41:29;;;;;;;2.03;0.88;;;;;;;13.31;100.00;98729.09;15279212;19;20021;-57
2022/10/08 13:46:57;;;;;;;2.88;0.95;;;;;;;13.30;100.00;98724.69;15277390;19;20573;-52
2022/10/08 13:52:26;;;;;;;3.25;0.93;;;;;;;13.14;100.00;98723.69;15278969;19;20352;-55
2022/10/08 13:57:51;;;;;;;3.83;1.17;;;;;;;13.29;100.00;98725.69;15283878;19;20517;-60
2022/10/08 14:03:15;;;;;;;3.47;0.88;;;;;;;13.41;100.00;98729.78;15282393;19;20011;-57
2022/10/08 14:08:43;;;;;;;3.53;1.05;;;;;;;13.55;100.00;98731.78;15272967;19;20379;-58
2022/10/08 14:14:07;;;;;;;2.45;0.80;;;;;;;13.78;100.00;98731.03;15282195;19;20015;-58
2022/10/08 14:19:33;;;;;;;2.22;0.98;;;;;;;13.80;100.00;98729.00;15280694;19;20014;-59
2022/10/08 14:25:00;;;;;;;3.33;1.00;;;;;;;13.67;100.00;98729.53;15278524;19;20357;-58
2022/10/08 14:30:25;;;;;;;2.13;0.90;;;;;;;13.73;100.00;98736.13;15278780;19;20029;-57
2022/10/08 14:35:52;;;;;;;1.60;0.90;;;;;;;13.60;100.00;98742.09;14769367;19;10001462;-57
2022/10/08 14:41:20;;;;;;;8.95;1.55;;;;;;;13.72;100.00;98745.25;15272444;19;20374;-57
2022/10/08 14:46:46;;;;;;;7.53;1.35;;;;;;;13.70;100.00;98739.19;15275383;19;20493;-59
2022/10/08 14:52:11;;;;;;;3.05;1.00;;;;;;;13.71;100.00;98751.69;15276608;19;20294;-58
2022/10/08 14:57:38;;;;;;;1.63;0.90;;;;;;;13.77;100.00;98740.16;15272518;19;20022;-60
2022/10/08 15:03:04;;;;;;;3.22;0.85;;;;;;;13.98;100.00;98749.56;15275554;19;20346;-59
2022/10/08 15:08:28;;;;;;;2.15;1.00;;;;;;;14.32;100.00;98745.69;15270965;19;20082;-59
2022/10/08 15:13:57;;;;;;;2.97;1.00;;;;;;;14.42;100.00;98759.88;15267341;19;20022;-59
2022/10/08 15:19:23;;;;;;;3.08;0.98;;;;;;;14.35;100.00;98769.75;15273096;19;20379;-60
2022/10/08 15:24:47;;;;;;;2.80;1.13;;;;;;;14.42;100.00;98761.75;15269861;19;20022;-59
2022/10/08 15:30:15;;;;;;;2.35;0.80;;;;;;;14.00;100.00;98793.59;15269103;19;20062;-60
2022/10/08 15:35:44;;;;;;;0.80;0.40;;;;;;;13.15;100.00;98789.47;15273250;19;20025;-59
2022/10/08 15:41:08;;;;;;;1.35;0.40;;;;;;;12.51;100.00;98798.13;15271309;19;20011;-59
2022/10/08 15:46:36;;;;;;;0.63;0.32;;;;;;;12.36;100.00;98812.28;15265147;19;20026;-59
2022/10/08 15:52:01;;;;;;;0.47;0.30;;;;;;;12.21;100.00;98812.06;15272814;19;20014;-58
2022/10/08 15:57:27;;;;;;;0.95;0.50;;;;;;;12.08;100.00;98825.16;15264996;19;20010;-59
2022/10/08 16:02:57;;;;;;;0.30;0.25;;;;;;;12.17;100.00;98822.34;15273978;19;20031;-58
2022/10/08 16:08:21;;;;;;;0.30;0.30;;;;;;;12.24;100.00;98830.66;15270876;19;20495;-59
2022/10/08 16:13:47;;;;;;;1.27;0.50;;;;;;;12.15;100.00;98837.03;15270706;19;20026;-58
2022/10/08 16:19:17;;;;;;;1.77;0.60;;;;;;;12.01;100.00;98835.75;15264484;19;20061;-59
2022/10/08 16:24:42;;;;;;;2.53;0.80;;;;;;;11.78;100.00;98852.47;15268734;19;20022;-58
2022/10/08 16:30:07;;;;;;;1.65;0.50;;;;;;;11.69;100.00;98848.00;15257926;19;20018;-58
2022/10/08 16:35:37;;;;;;;2.10;1.90;;;;;;;11.45;100.00;98862.19;15269631;19;20022;-56
2022/10/08 16:41:02;;;;;;;2.00;0.60;;;;;;;11.34;100.00;98877.63;15267598;19;20033;-61
2022/10/08 16:46:28;;;;;;;1.10;0.50;;;;;;;11.23;100.00;98880.53;15269310;19;20033;-60
2022/10/08 16:51:55;;;;;;;3.85;2.50;;;;;;;11.17;100.00;98891.94;15264905;19;20021;-58
2022/10/08 16:57:20;;;;;;;11.70;10.50;;;;;;;11.08;100.00;98905.34;15265398;19;20040;-59
2022/10/08 17:02:44;;;;;;;7.60;6.45;;;;;;;10.94;100.00;98905.84;15241538;19;20035;-59
2022/10/08 17:08:12;;;;;;;6.57;5.03;;;;;;;10.86;100.00;98919.25;15266387;19;20342;-57
2022/10/08 17:13:37;;;;;;;5.80;4.80;;;;;;;10.80;100.00;98923.41;15268326;19;20025;-61
2022/10/08 17:19:02;;;;;;;4.45;2.90;;;;;;;10.72;100.00;98931.38;15267387;19;20024;-59
2022/10/08 17:24:30;;;;;;;3.25;2.20;;;;;;;10.62;100.00;98934.13;15257894;19;20018;-62
2022/10/08 17:29:59;;;;;;;2.35;2.00;;;;;;;10.54;100.00;98950.16;15259939;19;20389;-60
2022/10/08 17:35:25;;;;;;;5.13;1.85;;;;;;;10.46;100.00;98956.31;15257926;19;20022;-59
2022/10/08 17:40:52;;;;;;;2.78;1.85;;;;;;;10.36;100.00;98959.00;15262910;19;20373;-60
2022/10/08 17:46:19;;;;;;;2.28;1.45;;;;;;;10.32;100.00;98974.59;15261908;19;20374;-59
2022/10/08 17:51:44;;;;;;;1.30;1.20;;;;;;;10.26;100.00;98975.19;15263480;19;20023;-60
2022/10/08 17:57:12;;;;;;;3.00;2.33;;;;;;;10.21;100.00;98993.63;15255869;19;20019;-59
2022/10/08 18:02:36;;;;;;;2.95;1.70;;;;;;;10.14;100.00;99000.56;15263526;19;20027;-58
2022/10/08 18:08:01;;;;;;;2.65;1.63;;;;;;;10.05;100.00;99006.81;15255826;19;20018;-59
2022/10/08 18:13:28;;;;;;;3.47;1.98;;;;;;;9.98;100.00;99015.50;15256855;19;20102;-58
2022/10/08 18:18:54;;;;;;;4.20;2.67;;;;;;;9.92;100.00;99039.44;15261642;19;20050;-57
2022/10/08 18:24:26;;;;;;;3.05;2.10;;;;;;;9.84;100.00;99030.19;15276322;19;20018;-59
2022/10/08 18:29:54;;;;;;;3.22;2.45;;;;;;;9.78;100.00;99035.31;15264552;19;20022;-58
2022/10/08 18:35:18;;;;;;;4.00;2.40;;;;;;;9.69;100.00;99058.53;15276291;19;20017;-60
2022/10/08 18:40:43;;;;;;;4.03;1.80;;;;;;;9.64;100.00;99052.72;15271811;19;20026;-53
2022/10/08 18:46:11;;;;;;;5.72;3.45;;;;;;;9.61;100.00;99071.81;15272833;19;20078;-61
2022/10/08 18:51:37;;;;;;;3.85;2.47;;;;;;;9.56;100.00;99078.50;15272186;19;20018;-57
2022/10/08 18:57:02;;;;;;;4.88;3.30;;;;;;;9.48;100.00;99086.38;15270855;19;20029;-56
2022/10/08 19:02:31;;;;;;;3.58;2.88;;;;;;;9.49;100.00;99085.38;15273080;19;20025;-60
2022/10/08 19:07:55;;;;;;;13.48;9.85;;;;;;;9.50;100.00;99095.16;15273110;19;20042;-55
2022/10/08 19:13:21;;;;;;;5.50;2.70;;;;;;;9.48;100.00;99099.00;15267887;19;20033;-55
2022/10/08 19:18:54;;;;;;;7.28;3.53;;;;;;;9.46;100.00;99101.81;15275174;19;20082;-57
2022/10/08 19:24:22;;;;;;;4.00;2.78;;;;;;;9.40;100.00;99116.69;15271486;19;20018;-56
2022/10/08 19:29:49;;;;;;;5.22;2.90;;;;;;;9.30;100.00;99112.22;15266306;19;20010;-57
2022/10/08 19:35:18;;;;;;;6.18;2.65;;;;;;;9.32;100.00;99123.72;15272393;19;20030;-56
2022/10/08 19:40:43;;;;;;;3.72;2.47;;;;;;;9.32;100.00;99134.47;15272175;19;20022;-59
2022/10/08 19:46:10;;;;;;;3.97;2.20;;;;;;;9.32;100.00;99140.69;15269413;19;20251;-60
2022/10/08 19:51:39;;;;;;;3.88;2.20;;;;;;;9.35;100.00;99137.72;15271258;19;20025;-60
2022/10/08 19:57:03;;;;;;;3.63;2.17;;;;;;;9.37;100.00;99157.28;15270648;19;20325;-58
2022/10/08 20:02:28;;;;;;;2.58;1.98;;;;;;;9.38;100.00;99150.03;15267573;19;20082;-58
2022/10/08 20:07:56;;;;;;;3.88;2.17;;;;;;;9.34;100.00;99154.00;15266640;19;20002;-57
2022/10/08 20:13:21;;;;;;;3.90;2.00;;;;;;;9.33;100.00;99160.38;15273722;19;20015;-59
2022/10/08 20:18:51;;;;;;;3.80;2.10;;;;;;;9.29;100.00;99164.31;15273200;19;20024;-57
2022/10/08 20:24:20;;;;;;;4.32;2.20;;;;;;;9.23;100.00;99158.47;15285619;19;20015;-57
2022/10/08 20:29:45;;;;;;;3.08;1.83;;;;;;;9.07;100.00;99169.72;15268613;19;20481;-58
2022/10/08 20:35:11;;;;;;;5.25;2.20;;;;;;;9.05;100.00;99185.16;15264725;19;20140;-58
2022/10/08 20:40:38;;;;;;;3.80;2.08;;;;;;;8.96;100.00;99191.28;15269894;19;20495;-56
2022/10/08 20:46:03;;;;;;;3.67;2.08;;;;;;;8.91;100.00;99199.75;15266929;19;20017;-57
2022/10/08 20:51:30;;;;;;;3.90;2.13;;;;;;;8.84;100.00;99209.34;15263397;19;20026;-55
2022/10/08 20:56:58;;;;;;;5.68;2.10;;;;;;;8.82;100.00;99210.47;15264523;19;20028;-57
2022/10/08 21:02:23;;;;;;;3.83;1.90;;;;;;;8.81;100.00;99214.97;15269622;19;20014;-56
2022/10/08 21:07:47;;;;;;;2.95;2.05;;;;;;;8.78;100.00;99212.53;15261215;19;20025;-59
2022/10/08 21:13:15;;;;;;;3.88;2.28;;;;;;;8.75;100.00;99223.56;15266847;19;20485;-59
2022/10/08 21:18:40;;;;;;;3.50;1.88;;;;;;;8.68;100.00;99225.91;15269409;19;20127;-55
2022/10/08 21:24:05;;;;;;;4.93;2.00;;;;;;;8.59;100.00;99227.53;15266511;19;20011;-51
2022/10/08 21:29:33;;;;;;;4.30;2.33;;;;;;;8.55;100.00;99235.97;15267744;19;20034;-56
2022/10/08 21:34:58;;;;;;;3.15;1.75;;;;;;;8.43;100.00;99227.94;15266297;19;20385;-56
2022/10/08 21:40:23;;;;;;;2.22;1.80;;;;;;;8.30;100.00;99230.75;15263175;19;20385;-57
2022/10/08 21:46:01;;;;;;;3.10;2.05;;;;;;;8.18;100.00;99242.50;15264677;19;20011;-58
2022/10/08 21:51:27;;;;;;;3.13;2.22;;;;;;;8.01;100.00;99244.75;15262441;19;20115;-55
2022/10/08 21:56:52;;;;;;;2.70;2.45;;;;;;;7.84;100.00;99253.31;15271215;19;20011;-58
2022/10/08 22:02:19;;;;;;;5.47;2.50;;;;;;;7.76;100.00;99255.75;15281218;19;20090;-57
2022/10/08 22:07:44;;;;;;;4.63;2.83;;;;;;;7.67;100.00;99263.56;15273992;19;20023;-61
2022/10/08 22:13:15;;;;;;;5.85;2.50;;;;;;;7.60;100.00;99267.69;15275455;19;20010;-58
2022/10/08 22:18:43;;;;;;;4.50;2.40;;;;;;;7.50;100.00;99266.72;15279026;19;20010;-59
2022/10/08 22:24:08;;;;;;;5.10;2.75;;;;;;;7.42;100.00;99269.16;15279560;19;20028;-58
2022/10/08 22:29:34;;;;;;;5.07;2.70;;;;;;;7.30;100.00;99270.94;15277837;19;20592;-59
2022/10/08 22:35:01;;;;;;;5.30;3.10;;;;;;;7.23;100.00;99271.44;15280663;19;20038;-58
2022/10/08 22:40:25;;;;;;;5.78;2.95;;;;;;;7.18;100.00;99278.13;15279401;19;20019;-58
2022/10/08 22:45:51;;;;;;;6.32;3.13;;;;;;;7.13;100.00;99291.00;15270502;19;20461;-59
2022/10/08 22:51:21;;;;;;;5.30;3.13;;;;;;;7.11;100.00;99283.09;15276763;19;20026;-57
2022/10/08 22:56:45;;;;;;;5.38;2.97;;;;;;;7.07;100.00;99293.22;15272733;19;20017;-58
2022/10/08 23:02:10;;;;;;;5.43;3.17;;;;;;;7.04;100.00;99290.75;15279477;19;20011;-54
2022/10/08 23:07:38;;;;;;;7.13;3.03;;;;;;;6.99;100.00;99300.13;15270653;19;20364;-60
2022/10/08 23:13:04;;;;;;;6.25;3.35;;;;;;;6.92;100.00;99299.72;15278136;19;20007;-55
2022/10/08 23:18:29;;;;;;;6.65;3.78;;;;;;;6.86;100.00;99302.88;15273232;19;20018;-55
2022/10/08 23:23:57;;;;;;;5.68;3.60;;;;;;;6.80;100.00;99306.88;15275636;19;20842;-55
2022/10/08 23:29:21;;;;;;;8.63;4.00;;;;;;;6.74;100.00;99313.56;15270672;19;20480;-55
2022/10/08 23:34:46;;;;;;;4.75;3.63;;;;;;;6.72;100.00;99315.50;15274379;19;20022;-56
2022/10/08 23:40:13;;;;;;;7.70;3.83;;;;;;;6.65;100.00;99316.91;15270690;19;20513;-56
2022/10/08 23:45:37;;;;;;;7.57;4.55;;;;;;;6.61;100.00;99323.47;15272841;19;20035;-56
2022/10/08 23:51:02;;;;;;;5.88;4.22;;;;;;;6.60;100.00;99329.78;15269839;19;20098;-57
2022/10/08 23:56:32;;;;;;;9.10;4.38;;;;;;;6.57;100.00;99338.03;15271325;19;20084;-58
